Página principal
METAR-TAF:

METAR-TAF

Aeroportos :

Córdova, Espanha

latitude: 37-51N, longitude: 004-51W, altura: 90 m

Observação actual do tempo

O boletim foi feito há 33 minutos, às 19:30 UTC
Vento 4 kt de oes-sudoeste
Temperatura 29°C
Humidade 37%
Pressão 1014 hPa
Visibilidade 10 km ou mais
sem nuvens abaixo de 1500 metros e sem cumulonimbus

METAR: LEBA 281930Z 24004KT CAVOK 29/13 Q1014

Hora: 22:03 (20:03 UTC)

Previsão

O boletim foi feito há 6 horas e 3 minutos, às 14:00 UTC
Previsão válida de 28 às 15 UTC a 29 às 15 UTC
Vento 5 kt de oes-sudoeste
Visibilidade 10 km ou mais
sem nuvens abaixo de 1500 metros e sem cumulonimbus

TAF: LEBA 281400Z 2815/2915 24005KT CAVOK TX35/2915Z TN15/2906Z

Observações e previsões do tempo de mais de 4000 aeroportos (mensagens METAR e TAF).

As estações disponíveis são os pontos amarelos e vermelhos sobre o mapa.

Mova o rato sobre o mapa para ver o nome da estação.

Depois clique no ponto para visualizar as observações e previsões meteorológicas.

Para alterar o mapa : clique nos botões verdes com uma cruz preta para aumentar o zoom; no botão verde com uma pitada de zoom; ou nas setas verdes para mapas adjacentes.


METAR-TAF: